Kezdőlap
METAR-TAF:

METAR-TAF

Repülőterek :

Eszék, Horvátország

földrajzi szélesség: 45-27N, földrajzi hosszúság: 018-48E, magasság: 88 m

Jelenlegi meteorológiai megfigyelések

A jelentés 19 perccel ezelõtt készült, 02:30 UTC
Különbözõ irányokból fújó szél 3 kt
Hőmérséklet 16°C
Páratartalom 94%
Légköri nyomás 1015 hPa
Látótávolság 10 km, vagy több
felhőtlen 1500 m magasságban, és nincs gomolyfelhõ

METAR: LDOS 210230Z VRB03KT CAVOK 16/15 Q1015

Idő: 04:49 (02:49 UTC)

Előrejelzés

A jelentés 3 órával és 24 perccel ezelõtt készült, 23:25 UTC
Az előrejelzés 21-én 00 óra UTC és 22-én 00 óra UTC között érvényes
Nyugat-északnyugati szél 6 kt
Látótávolság 10 km, vagy több
felhőtlen 1500 m magasságban, és nincs gomolyfelhõ
21-én 10 óra UTC és 21-én 12 óra UTC között fokozatosan kialakuló
Kelet-délkeleti szél 6 kt

TAF: LDOS 202325Z 2100/2200 30006KT CAVOK TX33/2113Z TN16/2103Z BECMG 2110/2112 11006KT

Meteorológiai megfigyelések és előrejelzések több, mint 4000 repülőtéren (METAR és TAF jelentéseket).

A térképen piros és sárga pontok jelzik az elérhető meteorológiai állomásokat.

Mozgassa az egeret a pont fölött, hogy megjelenjen az állomás neve.

Azután kattintson az időjárási megfigyelések és előrejelzések megtekintéséhez.

A térkép megváltoztatása: kattintson a fekete keresztel jelölt zöld gombra ráközelítéshez, a vonallal jelölt zöld gombra távolításhoz, vagy a zöld nyilakra a szomszédos térképek eléréséhez.


METAR-TAF: